KPHF/PHF METAR and TAF weather

Enter ICAO airport designator
Station Type Date Time Source
KPHF METAR 2019/04/22 23:54 UTC NOAA

KPHF 222354Z 00000KT 10SM CLR 18/09 A3007 RMK AO2 SLP183 T01780094 10228 20178 53007


Station Type Date Time Source
KPHF Decoded METAR 2019/04/22 23:54 UTC NOAA

WILLIAMSBURG INTERNATIONAL AIRPORT , VA, United States (KPHF) 37-08N 76-30W 12M
Apr 22, 2019 - 07:54 PM EDT / 2019.04.22 2354 UTC
Wind: Calm:0
Visibility: 10 mile(s):0
Sky conditions: clear
Temperature: 64.0 F (17.8 C)
Dew Point: 48.9 F (9.4 C)
Relative Humidity: 57%
Pressure (altimeter): 30.07 in. Hg (1018 hPa)
Pressure tendency: 0.02 inches (0.7 hPa) higher than three hours ago
ob: KPHF 222354Z 00000KT 10SM CLR 18/09 A3007 RMK AO2 SLP183 T01780094 10228 20178 53007
cycle: 0

Station Type Date Time Source
KPHF TAF 2019/04/22 18:39 UTC NOAA

TAF KPHF 221736Z 2218/2318 32010KT P6SM SCT035 BKN060
FM222300 30005KT P6SM SKC
FM230200 24003KT P6SM SKC
FM231400 25007KT P6SM SKC

Example: see airport list